Terminal Aerodrome Forecast
Issued by NWS

Home | Current Version | Previous Version | Text Only | Print | Product List | Glossary On
Versions: 1 2 3 4 5 6 7 8 9 10 11 12 13 14 15 16 17 18 19 20 21 22
000
FTUS41 KPBZ 010600 AAA
TAFFKL
TAF AMD
KFKL 010659Z 0107/0206 VRB05KT 5SM -SN OVC025
     FM010800 VRB03KT 1SM -SN OVC010
     FM010900 VRB05KT 1/2SM SN OVC008
     FM011600 20005KT 1SM -SN OVC008
     FM020300 27010KT 6SM -SN OVC010
      AMD LTD TO CLD VIS AND WIND=

USA.gov is the U.S. government's official web portal to all federal, state and local government web resources and services.